Time;durP1;ratioP1;P1;durP2;ratioP2;P2;SDS_P1;SDS_P2;PMS_P1;PMS_P2;Temp;Humidity;BMP_temperature;BMP_pressure;BME280_temperature;BME280_humidity;BME280_pressure;Samples;Min_cycle;Max_cycle;Signal;HPM_P1;HPM_P2
2023/07/05 00:01:30;;;;;;;17.60;13.70;;;17.40;99.90;;;;;;6271400;22;20085;-77
2023/07/05 00:03:55;;;;;;;22.17;14.50;;;17.40;99.90;;;;;;6271482;22;20026;-77
2023/07/05 00:06:22;;;;;;;18.67;13.07;;;17.40;99.90;;;;;;6271942;22;20382;-77
2023/07/05 00:08:48;;;;;;;17.85;12.65;;;17.40;99.90;;;;;;6272694;22;20003;-77
2023/07/05 00:11:14;;;;;;;24.65;14.23;;;17.30;99.90;;;;;;6273258;22;20026;-76
2023/07/05 00:13:40;;;;;;;21.13;14.85;;;17.30;99.90;;;;;;6273473;22;20086;-77
2023/07/05 00:16:08;;;;;;;18.40;13.38;;;17.30;99.90;;;;;;6273043;22;20422;-77
2023/07/05 00:18:36;;;;;;;19.40;13.27;;;17.30;99.90;;;;;;6273283;22;20032;-77
2023/07/05 00:21:05;;;;;;;17.95;13.63;;;17.30;99.90;;;;;;6273302;22;19995;-77
2023/07/05 00:23:32;;;;;;;21.38;13.50;;;17.30;99.90;;;;;;6272795;22;20045;-77
2023/07/05 00:25:58;;;;;;;17.05;12.07;;;17.30;99.90;;;;;;6272722;22;19996;-78
2023/07/05 00:28:24;;;;;;;18.95;11.93;;;17.30;99.90;;;;;;6273472;22;20010;-77
2023/07/05 00:30:49;;;;;;;23.83;12.27;;;17.30;99.90;;;;;;6273385;22;20030;-77
2023/07/05 00:33:15;;;;;;;21.08;12.95;;;17.30;99.90;;;;;;6272737;22;20004;-78
2023/07/05 00:35:52;;;;;;;18.65;12.65;;;17.30;99.90;;;;;;6273474;22;20376;-77
2023/07/05 00:38:19;;;;;;;14.15;12.00;;;17.30;99.90;;;;;;6272491;22;20034;-78
2023/07/05 00:40:45;;;;;;;16.30;12.68;;;17.30;99.90;;;;;;6246105;22;20000;-77
2023/07/05 00:43:12;;;;;;;16.60;12.45;;;17.30;99.90;;;;;;6272879;22;20008;-77
2023/07/05 00:45:42;;;;;;;14.70;11.07;;;17.30;99.90;;;;;;6273548;22;20074;-77
2023/07/05 00:48:13;;;;;;;21.95;12.07;;;17.30;99.90;;;;;;6272859;22;20414;-77
2023/07/05 00:50:41;;;;;;;14.25;8.93;;;17.30;99.90;;;;;;6273502;22;19999;-77
2023/07/05 00:53:09;;;;;;;14.93;10.35;;;17.30;99.90;;;;;;6244921;22;19999;-77
2023/07/05 00:55:35;;;;;;;13.13;10.60;;;17.30;99.90;;;;;;6272971;22;20110;-77
2023/07/05 00:58:03;;;;;;;11.77;8.52;;;17.20;99.90;;;;;;6272865;22;19995;-77
2023/07/05 01:00:30;;;;;;;9.95;7.82;;;17.20;99.90;;;;;;6273197;22;20065;-78
2023/07/05 01:02:58;;;;;;;12.02;8.63;;;17.20;99.90;;;;;;6274446;22;20015;-78
2023/07/05 01:05:24;;;;;;;15.65;8.38;;;17.20;99.90;;;;;;6275273;22;20007;-77
2023/07/05 01:07:50;;;;;;;10.27;7.43;;;17.20;99.90;;;;;;6273240;22;20027;-77
2023/07/05 01:10:18;;;;;;;11.15;8.32;;;17.30;99.90;;;;;;6272410;22;20010;-76
2023/07/05 01:13:02;;;;;;;7.28;6.43;;;17.30;99.90;;;;;;6273302;22;20121;-77
2023/07/05 01:15:39;;;;;;;10.77;6.70;;;17.30;99.90;;;;;;6273099;22;20004;-77
2023/07/05 01:18:34;;;;;;;13.93;7.45;;;17.30;99.90;;;;;;6274402;22;20357;-78
2023/07/05 01:21:33;;;;;;;8.20;5.25;;;17.30;99.90;;;;;;6273928;22;20000;-77
2023/07/05 01:24:16;;;;;;;7.70;6.22;;;17.30;99.90;;;;;;6273532;22;20030;-78
2023/07/05 01:27:09;;;;;;;9.30;6.70;;;17.30;99.90;;;;;;6273341;22;20031;-78
2023/07/05 01:29:59;;;;;;;6.65;4.80;;;17.30;99.90;;;;;;6273017;22;20031;-78
2023/07/05 01:32:29;;;;;;;6.13;5.53;;;17.30;99.90;;;;;;6272921;22;20007;-77
2023/07/05 01:35:08;;;;;;;8.63;5.45;;;17.40;99.90;;;;;;6272576;22;20003;-77
2023/07/05 01:37:33;;;;;;;10.10;5.43;;;17.40;99.90;;;;;;6272394;22;20028;-77
2023/07/05 01:39:59;;;;;;;8.55;5.15;;;17.40;99.90;;;;;;6245367;22;20007;-77
2023/07/05 01:42:29;;;;;;;7.40;5.32;;;17.40;99.90;;;;;;6273255;22;20035;-77
2023/07/05 01:44:55;;;;;;;7.10;5.47;;;17.40;99.90;;;;;;6273225;22;20000;-78
2023/07/05 01:47:42;;;;;;;10.63;5.45;;;17.40;99.90;;;;;;6274034;22;20015;-78
2023/07/05 01:50:24;;;;;;;9.50;5.47;;;17.40;99.90;;;;;;6244790;22;20051;-77
2023/07/05 01:53:18;;;;;;;9.57;6.07;;;17.40;99.90;;;;;;6272116;22;20000;-78
2023/07/05 01:55:50;;;;;;;10.02;5.82;;;17.40;99.90;;;;;;6272723;22;20006;-78
2023/07/05 01:58:22;;;;;;;5.35;4.68;;;17.40;99.90;;;;;;6272298;22;19992;-77
2023/07/05 02:00:50;;;;;;;7.32;4.90;;;17.40;99.90;;;;;;6272683;22;20023;-78
2023/07/05 02:03:19;;;;;;;7.13;4.90;;;17.40;99.90;;;;;;6244853;22;20429;-78
2023/07/05 02:05:47;;;;;;;6.13;4.90;;;17.40;99.90;;;;;;6272128;22;20000;-78
2023/07/05 02:08:13;;;;;;;6.15;4.47;;;17.40;99.90;;;;;;6272142;22;20430;-78
2023/07/05 02:10:39;;;;;;;6.72;4.03;;;17.50;99.90;;;;;;6272307;22;20083;-78
2023/07/05 02:13:07;;;;;;;7.75;4.45;;;17.60;99.90;;;;;;6272163;22;20035;-78
2023/07/05 02:15:33;;;;;;;3.63;3.10;;;17.60;99.90;;;;;;6272261;22;20003;-78
2023/07/05 02:17:59;;;;;;;4.10;3.33;;;17.60;99.90;;;;;;6272156;22;20318;-79
2023/07/05 02:20:24;;;;;;;3.88;3.42;;;17.60;99.90;;;;;;6271886;22;20067;-78
2023/07/05 02:22:50;;;;;;;4.75;2.97;;;17.60;99.90;;;;;;6272196;22;20364;-78
2023/07/05 02:25:16;;;;;;;4.88;3.83;;;17.60;99.90;;;;;;6271823;22;20379;-77
2023/07/05 02:27:41;;;;;;;5.13;3.47;;;17.60;99.90;;;;;;6272504;22;20027;-78
2023/07/05 02:30:09;;;;;;;6.50;3.78;;;17.60;99.90;;;;;;6271839;22;20333;-78
2023/07/05 02:32:35;;;;;;;3.45;3.15;;;17.60;99.90;;;;;;6271717;22;20008;-78
2023/07/05 02:35:01;;;;;;;3.55;2.72;;;17.60;99.90;;;;;;6271337;22;20015;-78
2023/07/05 02:37:26;;;;;;;3.97;3.00;;;17.60;99.90;;;;;;6272159;22;20307;-78
2023/07/05 02:39:53;;;;;;;4.15;2.75;;;17.60;99.90;;;;;;6272116;22;20002;-77
2023/07/05 02:42:19;;;;;;;4.60;3.38;;;17.50;99.90;;;;;;6272198;22;20024;-78
2023/07/05 02:44:48;;;;;;;4.35;3.22;;;17.50;99.90;;;;;;6272176;22;19999;-78
2023/07/05 02:47:13;;;;;;;5.00;2.53;;;17.50;99.90;;;;;;6272382;22;20511;-77
2023/07/05 02:49:39;;;;;;;7.00;2.72;;;17.50;99.90;;;;;;6271496;22;20474;-77
2023/07/05 02:52:05;;;;;;;3.85;2.67;;;17.40;99.90;;;;;;6271653;22;20004;-78
2023/07/05 02:54:31;;;;;;;2.75;2.35;;;17.40;99.90;;;;;;6271790;22;20046;-78
2023/07/05 02:56:56;;;;;;;3.50;2.42;;;17.40;99.90;;;;;;6271741;22;20418;-78
2023/07/05 02:59:22;;;;;;;3.17;2.30;;;17.30;99.90;;;;;;6272115;22;20008;-78
2023/07/05 03:01:48;;;;;;;3.13;2.45;;;17.30;99.90;;;;;;6271917;22;20015;-78
2023/07/05 03:04:14;;;;;;;4.80;2.97;;;17.30;99.90;;;;;;6243883;22;20720;-78
2023/07/05 03:06:39;;;;;;;7.97;3.50;;;17.30;99.90;;;;;;6271894;22;20004;-78
2023/07/05 03:09:05;;;;;;;3.67;3.10;;;17.30;99.90;;;;;;6271207;22;20074;-78
2023/07/05 03:11:30;;;;;;;6.40;3.60;;;17.30;99.90;;;;;;6244845;22;20031;-78
2023/07/05 03:13:56;;;;;;;3.88;3.58;;;17.30;99.90;;;;;;6271068;22;20030;-76
2023/07/05 03:16:22;;;;;;;4.05;3.65;;;17.20;99.90;;;;;;6271632;22;20007;-77
2023/07/05 03:18:47;;;;;;;3.50;3.08;;;17.10;99.90;;;;;;6271337;22;20010;-77
2023/07/05 03:21:13;;;;;;;4.40;3.63;;;17.00;99.90;;;;;;6271161;22;20222;-77
2023/07/05 03:23:38;;;;;;;4.30;3.53;;;16.80;99.90;;;;;;6271671;22;20009;-77
2023/07/05 03:26:08;;;;;;;4.57;4.18;;;16.70;99.90;;;;;;6271566;22;20012;-78
2023/07/05 03:28:35;;;;;;;4.03;3.40;;;16.60;99.90;;;;;;6271648;22;20333;-77
2023/07/05 03:31:05;;;;;;;4.82;3.42;;;16.50;99.90;;;;;;6271609;22;20050;-78
2023/07/05 03:33:31;;;;;;;4.05;2.63;;;16.40;99.90;;;;;;6271488;22;19992;-77
2023/07/05 03:35:59;;;;;;;5.10;3.20;;;16.40;99.90;;;;;;6271535;22;20000;-77
2023/07/05 03:38:26;;;;;;;5.13;4.15;;;16.30;99.90;;;;;;6271734;22;20528;-77
2023/07/05 03:41:02;;;;;;;4.57;3.20;;;16.30;99.90;;;;;;6271796;22;20007;-77
2023/07/05 03:43:30;;;;;;;4.38;2.63;;;16.20;99.90;;;;;;6272915;22;20024;-77
2023/07/05 03:45:59;;;;;;;4.28;3.58;;;16.20;99.90;;;;;;6273034;22;19996;-78
2023/07/05 03:48:25;;;;;;;4.35;3.58;;;16.10;99.90;;;;;;6246088;22;20000;-78
2023/07/05 03:50:58;;;;;;;6.60;3.60;;;16.10;99.90;;;;;;6274061;22;20011;-77
2023/07/05 03:53:24;;;;;;;7.27;3.27;;;16.00;99.90;;;;;;6246265;22;20049;-77
2023/07/05 03:55:50;;;;;;;4.32;3.10;;;15.90;99.90;;;;;;6246829;22;20246;-77
2023/07/05 03:58:16;;;;;;;4.75;2.50;;;15.90;99.90;;;;;;6272938;22;20007;-77
2023/07/05 04:00:42;;;;;;;4.93;2.70;;;15.80;99.90;;;;;;6273261;22;20016;-77
2023/07/05 04:03:07;;;;;;;4.28;2.88;;;15.80;99.90;;;;;;6273566;22;20402;-77
2023/07/05 04:05:34;;;;;;;5.20;3.28;;;15.80;99.90;;;;;;6274181;22;20042;-77
2023/07/05 04:07:59;;;;;;;5.63;3.35;;;15.80;99.90;;;;;;6273581;22;20003;-77
2023/07/05 04:10:25;;;;;;;3.83;3.05;;;15.80;99.90;;;;;;6246871;22;19996;-77
2023/07/05 04:12:51;;;;;;;5.70;3.70;;;15.70;99.90;;;;;;6273815;22;20070;-77
2023/07/05 04:15:16;;;;;;;4.05;2.75;;;15.70;99.90;;;;;;6245842;22;20011;-77
2023/07/05 04:17:42;;;;;;;7.03;3.50;;;15.60;99.90;;;;;;6273905;22;19992;-77
2023/07/05 04:20:08;;;;;;;4.38;2.78;;;15.60;99.90;;;;;;6273918;22;20025;-77
2023/07/05 04:22:38;;;;;;;4.25;3.00;;;15.60;99.90;;;;;;6273856;22;20429;-77
2023/07/05 04:25:04;;;;;;;6.00;3.58;;;15.50;99.90;;;;;;6273506;22;20032;-77
2023/07/05 04:27:30;;;;;;;5.95;3.15;;;15.50;99.90;;;;;;6273817;22;20003;-76
2023/07/05 04:29:56;;;;;;;6.13;3.53;;;15.50;99.90;;;;;;6272956;22;20413;-77
2023/07/05 04:32:21;;;;;;;7.47;3.92;;;15.50;99.90;;;;;;6273951;22;20010;-77
2023/07/05 04:34:47;;;;;;;5.43;3.58;;;15.40;99.90;;;;;;6274339;22;20008;-77
2023/07/05 04:37:12;;;;;;;4.97;3.70;;;15.50;99.90;;;;;;6274204;22;20038;-77
2023/07/05 04:39:38;;;;;;;6.82;4.28;;;15.40;99.90;;;;;;6274183;22;19996;-76
2023/07/05 04:42:04;;;;;;;6.03;3.95;;;15.50;99.90;;;;;;6246167;22;20270;-77
2023/07/05 04:44:29;;;;;;;5.55;3.65;;;15.40;99.90;;;;;;6245913;22;20417;-76
2023/07/05 04:46:55;;;;;;;5.90;3.95;;;15.40;99.90;;;;;;6273106;22;20050;-77
2023/07/05 04:49:20;;;;;;;7.90;4.45;;;15.40;99.90;;;;;;6273995;22;20007;-76
2023/07/05 04:51:46;;;;;;;5.72;3.97;;;15.40;99.90;;;;;;6275344;22;20026;-78
2023/07/05 04:54:14;;;;;;;7.30;4.72;;;15.50;99.90;;;;;;6274561;22;20425;-77
2023/07/05 04:56:39;;;;;;;5.25;4.45;;;15.60;99.90;;;;;;6274282;22;20003;-76
2023/07/05 04:59:05;;;;;;;6.25;4.13;;;15.60;99.90;;;;;;6272898;22;20181;-77
2023/07/05 05:01:31;;;;;;;4.75;3.67;;;15.60;99.90;;;;;;6273290;22;20011;-76
2023/07/05 05:03:56;;;;;;;7.00;3.88;;;15.60;99.90;;;;;;6273165;22;20034;-77
2023/07/05 05:06:22;;;;;;;7.97;4.90;;;15.70;99.90;;;;;;6273428;22;20070;-76
2023/07/05 05:08:47;;;;;;;5.80;4.43;;;15.70;99.90;;;;;;6246341;22;20004;-77
2023/07/05 05:11:13;;;;;;;8.60;4.15;;;15.70;99.90;;;;;;6246178;22;20081;-76
2023/07/05 05:13:39;;;;;;;6.15;4.63;;;15.80;99.90;;;;;;6272760;22;20015;-76
2023/07/05 05:16:05;;;;;;;5.80;4.57;;;15.80;99.90;;;;;;6272763;22;20058;-75
2023/07/05 05:18:32;;;;;;;6.55;3.45;;;15.90;99.90;;;;;;6273232;22;19995;-76
2023/07/05 05:20:58;;;;;;;7.43;4.43;;;16.00;99.90;;;;;;6245920;22;20000;-75
2023/07/05 05:23:24;;;;;;;6.75;3.97;;;16.10;99.90;;;;;;6273112;22;20136;-75
2023/07/05 05:25:50;;;;;;;5.13;3.88;;;16.20;99.90;;;;;;6273176;22;20426;-75
2023/07/05 05:28:16;;;;;;;13.30;4.25;;;16.30;99.90;;;;;;6272009;22;20000;-75
2023/07/05 05:30:45;;;;;;;5.13;3.85;;;16.40;99.90;;;;;;6245932;22;20008;-75
2023/07/05 05:33:16;;;;;;;6.90;4.10;;;16.40;99.90;;;;;;6272896;22;20046;-75
2023/07/05 05:35:49;;;;;;;5.30;3.90;;;16.50;99.90;;;;;;6273075;22;20067;-76
2023/07/05 05:38:19;;;;;;;6.53;4.10;;;16.60;99.90;;;;;;6245327;22;20373;-75
2023/07/05 05:40:46;;;;;;;6.95;3.78;;;16.60;99.90;;;;;;6273160;22;20000;-74
2023/07/05 05:43:11;;;;;;;7.40;3.85;;;16.60;99.90;;;;;;6244806;22;20434;-75
2023/07/05 05:45:37;;;;;;;5.35;4.63;;;16.60;99.90;;;;;;6272856;22;19999;-75
2023/07/05 05:48:03;;;;;;;9.07;4.20;;;16.60;99.90;;;;;;6272401;22;20433;-75
2023/07/05 05:50:28;;;;;;;4.57;3.13;;;16.70;99.90;;;;;;6272778;22;20003;-75
2023/07/05 05:52:54;;;;;;;8.75;3.40;;;16.80;99.90;;;;;;6244954;22;20014;-75
2023/07/05 05:55:19;;;;;;;4.97;3.13;;;16.80;99.90;;;;;;6271290;22;20031;-75
2023/07/05 05:57:45;;;;;;;4.68;3.80;;;16.90;99.90;;;;;;6268791;22;20015;-75
2023/07/05 06:00:12;;;;;;;6.93;3.55;;;16.90;99.90;;;;;;6269005;22;20023;-75
2023/07/05 06:02:38;;;;;;;7.10;3.75;;;16.90;99.90;;;;;;6271173;22;20003;-75
2023/07/05 06:05:04;;;;;;;6.22;3.13;;;16.90;99.90;;;;;;6271473;22;20679;-75
2023/07/05 06:07:30;;;;;;;8.13;3.42;;;16.80;99.90;;;;;;6245133;22;20004;-75
2023/07/05 06:09:56;;;;;;;3.88;2.92;;;16.80;99.90;;;;;;6272181;22;20447;-75
2023/07/05 06:12:21;;;;;;;5.63;3.63;;;16.70;99.90;;;;;;6271718;22;20041;-75
2023/07/05 06:14:47;;;;;;;5.60;3.08;;;16.70;99.90;;;;;;6272696;22;20087;-75
2023/07/05 06:17:12;;;;;;;5.70;3.25;;;16.70;99.90;;;;;;6272334;22;20034;-75
2023/07/05 06:19:38;;;;;;;4.50;3.00;;;16.70;99.90;;;;;;6272670;22;20412;-75
2023/07/05 06:22:04;;;;;;;5.22;3.10;;;16.80;99.90;;;;;;6272218;22;20004;-75
2023/07/05 06:24:31;;;;;;;3.88;2.67;;;16.80;99.90;;;;;;6272523;22;20053;-75
2023/07/05 06:26:58;;;;;;;4.45;2.80;;;17.00;99.90;;;;;;6271513;22;20010;-75
2023/07/05 06:29:23;;;;;;;6.03;3.70;;;17.10;99.70;;;;;;6272663;22;20030;-75
2023/07/05 06:31:49;;;;;;;7.78;3.60;;;17.10;99.50;;;;;;6272520;22;19995;-75
2023/07/05 06:34:14;;;;;;;4.50;3.35;;;17.00;99.40;;;;;;6271960;22;20125;-75
2023/07/05 06:36:40;;;;;;;5.85;2.38;;;16.90;99.50;;;;;;6272669;22;20310;-75
2023/07/05 06:39:06;;;;;;;8.77;3.30;;;16.90;99.60;;;;;;6271934;22;20007;-75
2023/07/05 06:41:31;;;;;;;3.60;2.50;;;16.70;99.80;;;;;;6271913;22;20000;-75
2023/07/05 06:43:57;;;;;;;5.28;2.30;;;16.60;99.90;;;;;;6272051;22;20340;-75
2023/07/05 06:46:23;;;;;;;6.03;3.05;;;16.50;99.90;;;;;;6272298;22;20075;-75
2023/07/05 06:48:50;;;;;;;4.35;2.33;;;16.40;99.90;;;;;;6272554;22;20027;-75
2023/07/05 06:51:15;;;;;;;5.20;3.20;;;16.40;99.90;;;;;;6272015;22;20110;-75
2023/07/05 06:53:41;;;;;;;3.65;2.67;;;16.40;99.90;;;;;;6272424;22;20062;-75
2023/07/05 06:56:09;;;;;;;4.38;2.53;;;16.30;99.90;;;;;;6271449;22;20469;-74
2023/07/05 06:58:35;;;;;;;4.38;2.13;;;16.30;99.90;;;;;;6272202;22;20059;-75
2023/07/05 07:01:01;;;;;;;4.32;1.85;;;16.20;99.90;;;;;;6271640;22;20449;-76
2023/07/05 07:03:26;;;;;;;2.80;1.80;;;16.20;99.90;;;;;;6272499;22;19995;-76
2023/07/05 07:05:54;;;;;;;5.07;2.38;;;16.00;99.90;;;;;;6245140;22;20209;-76
2023/07/05 07:08:20;;;;;;;5.18;2.03;;;15.90;99.90;;;;;;6272400;22;19999;-76
2023/07/05 07:10:47;;;;;;;3.10;2.00;;;15.80;99.90;;;;;;6271556;22;20000;-76
2023/07/05 07:13:13;;;;;;;4.75;1.98;;;15.80;99.90;;;;;;6244751;22;20369;-76
2023/07/05 07:15:41;;;;;;;4.07;1.50;;;15.80;99.90;;;;;;6271946;22;20007;-75
2023/07/05 07:18:07;;;;;;;2.75;1.60;;;15.70;99.90;;;;;;6271552;22;19996;-76
2023/07/05 07:20:33;;;;;;;2.72;1.70;;;15.70;99.90;;;;;;6272158;22;20071;-75
2023/07/05 07:22:59;;;;;;;6.13;1.73;;;15.70;99.90;;;;;;6271789;22;20069;-75
2023/07/05 07:25:25;;;;;;;4.63;1.50;;;15.60;99.90;;;;;;6271178;22;20003;-76
2023/07/05 07:27:50;;;;;;;2.42;0.80;;;15.70;99.90;;;;;;6272134;22;19999;-75
2023/07/05 07:30:16;;;;;;;6.47;1.23;;;15.70;99.90;;;;;;6271625;22;20321;-76
2023/07/05 07:32:45;;;;;;;2.13;1.27;;;15.60;99.90;;;;;;6272145;22;20003;-76
2023/07/05 07:35:10;;;;;;;3.55;0.90;;;15.60;99.90;;;;;;6271609;22;20020;-75
2023/07/05 07:37:36;;;;;;;2.88;1.17;;;15.70;99.90;;;;;;6271358;22;20454;-75
2023/07/05 07:40:04;;;;;;;3.50;1.10;;;15.70;99.90;;;;;;6271558;22;20302;-75
2023/07/05 07:42:29;;;;;;;1.88;1.00;;;15.70;99.90;;;;;;6272043;22;20006;-76
2023/07/05 07:44:55;;;;;;;1.85;1.00;;;15.70;99.90;;;;;;6271509;22;20004;-75
2023/07/05 07:47:21;;;;;;;2.25;0.80;;;15.80;99.90;;;;;;6271876;22;20007;-75
2023/07/05 07:49:48;;;;;;;5.07;1.30;;;15.80;99.90;;;;;;6272114;22;19999;-76
2023/07/05 07:52:14;;;;;;;4.18;1.23;;;15.90;99.90;;;;;;6244079;22;20016;-75
2023/07/05 07:54:40;;;;;;;4.85;1.80;;;16.10;99.90;;;;;;6271792;22;20437;-75
2023/07/05 07:57:06;;;;;;;4.63;1.98;;;16.10;99.90;;;;;;6271475;22;20024;-75
2023/07/05 07:59:34;;;;;;;5.63;2.30;;;16.10;99.90;;;;;;6244750;22;20325;-76
2023/07/05 08:01:59;;;;;;;6.78;3.03;;;16.10;99.90;;;;;;6271276;22;20110;-76
2023/07/05 08:04:26;;;;;;;6.65;2.42;;;16.00;99.90;;;;;;6244519;22;20095;-75
2023/07/05 08:06:51;;;;;;;4.07;2.15;;;15.90;99.90;;;;;;6245176;22;20433;-75
2023/07/05 08:09:27;;;;;;;7.57;2.40;;;15.80;99.90;;;;;;6272163;22;19999;-75
2023/07/05 08:11:54;;;;;;;5.32;3.03;;;15.70;99.90;;;;;;6272555;22;20497;-75
2023/07/05 08:14:20;;;;;;;10.52;2.67;;;15.60;99.90;;;;;;6244506;22;20031;-76
2023/07/05 08:16:46;;;;;;;6.05;2.28;;;15.60;99.90;;;;;;6272067;22;20019;-75
2023/07/05 08:19:12;;;;;;;4.88;2.15;;;15.50;99.90;;;;;;6271689;22;19995;-76
2023/07/05 08:21:37;;;;;;;4.28;2.60;;;15.50;99.90;;;;;;6271667;22;20000;-75
2023/07/05 08:24:04;;;;;;;4.30;2.40;;;15.40;99.90;;;;;;6272894;22;20382;-75
2023/07/05 08:26:29;;;;;;;5.82;3.15;;;15.40;99.90;;;;;;6245005;22;20015;-75
2023/07/05 08:28:57;;;;;;;5.80;2.80;;;15.40;99.90;;;;;;6244866;22;20375;-75
2023/07/05 08:31:23;;;;;;;4.00;2.58;;;15.50;99.90;;;;;;6273829;22;20008;-75
2023/07/05 08:33:49;;;;;;;5.55;2.30;;;15.50;99.90;;;;;;6273736;22;20451;-76
2023/07/05 08:36:14;;;;;;;6.80;2.88;;;15.50;99.90;;;;;;6273040;22;20003;-75
2023/07/05 08:38:51;;;;;;;5.68;2.65;;;15.60;99.90;;;;;;6273891;22;20030;-76
2023/07/05 08:41:29;;;;;;;8.32;2.90;;;15.60;99.90;;;;;;6273045;22;20485;-75
2023/07/05 08:44:22;;;;;;;4.22;3.15;;;15.70;99.90;;;;;;6273184;22;20004;-75
2023/07/05 08:47:01;;;;;;;5.45;3.88;;;15.90;99.90;;;;;;6246622;22;19999;-75
2023/07/05 08:49:47;;;;;;;6.38;3.45;;;16.10;99.90;;;;;;6273297;22;20006;-75
2023/07/05 08:52:24;;;;;;;4.78;3.50;;;16.40;99.90;;;;;;6272287;22;20061;-76
2023/07/05 08:54:57;;;;;;;6.82;3.47;;;16.70;99.90;;;;;;6273186;22;20003;-75
2023/07/05 08:57:31;;;;;;;5.38;3.28;;;16.90;99.90;;;;;;6273488;22;20082;-75
2023/07/05 09:00:01;;;;;;;6.25;3.53;;;17.10;99.90;;;;;;6273140;22;19996;-76
2023/07/05 09:02:27;;;;;;;5.78;3.30;;;17.10;99.90;;;;;;6273174;22;20007;-75
2023/07/05 09:04:55;;;;;;;4.40;2.78;;;17.20;99.90;;;;;;6272628;22;20000;-75
2023/07/05 09:07:33;;;;;;;5.05;2.65;;;17.20;99.90;;;;;;6273115;22;20004;-74
2023/07/05 09:10:12;;;;;;;10.35;3.28;;;17.40;99.90;;;;;;6273007;22;20066;-76
2023/07/05 09:12:44;;;;;;;5.60;3.45;;;17.30;99.90;;;;;;6273190;22;19996;-75
2023/07/05 09:15:13;;;;;;;6.65;3.00;;;17.30;99.90;;;;;;6272922;22;20007;-75
2023/07/05 09:17:58;;;;;;;6.93;3.17;;;17.30;99.90;;;;;;6273291;22;20015;-75
2023/07/05 09:20:38;;;;;;;7.88;3.40;;;17.40;99.90;;;;;;6272934;22;20067;-75
2023/07/05 09:23:11;;;;;;;9.00;3.33;;;17.40;99.90;;;;;;6273013;22;20003;-75
2023/07/05 09:25:40;;;;;;;6.43;2.80;;;17.40;99.90;;;;;;6273273;22;20063;-75
2023/07/05 09:28:25;;;;;;;6.28;3.08;;;17.40;99.90;;;;;;6245580;22;20082;-75
2023/07/05 09:30:52;;;;;;;8.10;3.22;;;17.30;99.90;;;;;;6273216;22;20010;-75
2023/07/05 09:33:40;;;;;;;10.43;3.03;;;17.30;99.90;;;;;;6272782;22;20002;-75
2023/07/05 09:36:16;;;;;;;8.25;2.47;;;17.30;99.90;;;;;;6245333;22;20010;-75
2023/07/05 09:38:45;;;;;;;6.93;2.90;;;17.30;99.90;;;;;;6273280;22;20489;-75
2023/07/05 09:41:18;;;;;;;5.93;2.78;;;17.30;99.90;;;;;;6272298;22;20006;-75
2023/07/05 09:43:44;;;;;;;7.80;2.45;;;17.30;99.90;;;;;;6246025;22;20015;-75
2023/07/05 09:46:25;;;;;;;13.30;4.30;;;17.40;99.90;;;;;;6272804;22;19995;-75
2023/07/05 09:48:51;;;;;;;11.48;3.78;;;17.40;99.90;;;;;;6272440;22;20023;-75
2023/07/05 09:51:17;;;;;;;6.20;2.38;;;17.50;99.90;;;;;;6272678;22;20424;-75
2023/07/05 09:53:55;;;;;;;12.90;3.20;;;17.50;99.90;;;;;;6273155;22;19995;-76
2023/07/05 09:56:27;;;;;;;7.40;2.42;;;17.50;99.90;;;;;;6272879;22;20030;-75
2023/07/05 09:59:04;;;;;;;6.65;2.53;;;17.40;99.90;;;;;;6272691;22;20098;-74
2023/07/05 10:01:30;;;;;;;5.85;2.28;;;17.20;99.90;;;;;;6272598;22;20445;-75
2023/07/05 10:04:01;;;;;;;4.57;2.00;;;16.90;99.90;;;;;;6244767;22;20057;-76
2023/07/05 10:06:28;;;;;;;6.45;2.00;;;16.70;99.90;;;;;;6272865;22;20049;-75
2023/07/05 10:08:55;;;;;;;6.90;2.17;;;16.60;99.90;;;;;;6272529;22;20353;-76
2023/07/05 10:11:26;;;;;;;7.78;3.50;;;16.40;99.90;;;;;;6272673;22;20000;-76
2023/07/05 10:14:27;;;;;;;5.85;2.65;;;16.20;99.90;;;;;;6273760;22;20007;-78
2023/07/05 10:17:02;;;;;;;5.13;2.42;;;16.10;99.90;;;;;;6259915;22;20632;-76
2023/07/05 10:19:48;;;;;;;6.82;2.88;;;16.10;99.90;;;;;;6273553;22;20053;-76
2023/07/05 10:22:31;;;;;;;9.63;3.00;;;16.00;99.90;;;;;;6272619;22;20031;-77
2023/07/05 10:25:17;;;;;;;7.95;3.22;;;15.90;99.90;;;;;;6272377;22;20046;-77
2023/07/05 10:27:45;;;;;;;10.18;2.53;;;15.80;99.90;;;;;;6272763;22;20329;-77
2023/07/05 10:30:14;;;;;;;9.65;2.88;;;15.70;99.90;;;;;;6245037;22;20321;-77
2023/07/05 10:32:41;;;;;;;6.95;2.25;;;15.70;99.90;;;;;;6245001;22;20012;-76
2023/07/05 10:35:22;;;;;;;9.65;2.42;;;15.70;99.90;;;;;;6271962;22;20098;-76
2023/07/05 10:37:48;;;;;;;5.65;1.98;;;15.80;99.90;;;;;;6272802;22;20003;-77
2023/07/05 10:40:14;;;;;;;6.35;2.03;;;15.80;99.90;;;;;;6272013;22;20166;-77
2023/07/05 10:42:49;;;;;;;6.65;2.33;;;16.00;99.90;;;;;;6272836;22;20003;-77
2023/07/05 10:45:17;;;;;;;2.45;1.70;;;16.10;99.90;;;;;;6272029;22;20010;-76
2023/07/05 10:47:46;;;;;;;5.93;1.67;;;16.20;99.90;;;;;;6272121;22;20075;-76
2023/07/05 10:50:14;;;;;;;5.40;2.05;;;16.40;99.90;;;;;;6272107;22;20298;-77
2023/07/05 10:52:49;;;;;;;7.10;2.28;;;16.60;99.90;;;;;;6245093;22;20337;-76
2023/07/05 10:55:21;;;;;;;8.25;2.03;;;16.70;99.90;;;;;;6244854;22;20018;-76
2023/07/05 10:58:11;;;;;;;7.85;1.52;;;16.90;99.90;;;;;;6272292;22;19999;-76
2023/07/05 11:00:48;;;;;;;5.80;2.22;;;17.10;99.90;;;;;;6244333;22;20011;-76
2023/07/05 11:03:21;;;;;;;7.57;2.10;;;17.10;99.90;;;;;;6271515;22;20008;-76
2023/07/05 11:05:58;;;;;;;7.50;1.55;;;17.30;99.90;;;;;;6271917;22;20003;-76
2023/07/05 11:08:27;;;;;;;8.15;1.98;;;17.50;99.90;;;;;;6270910;22;20049;-76
2023/07/05 11:10:56;;;;;;;9.50;2.55;;;17.70;99.60;;;;;;6270576;22;19999;-76
2023/07/05 11:13:22;;;;;;;5.93;1.30;;;18.00;99.00;;;;;;6271665;22;20418;-76
2023/07/05 11:15:48;;;;;;;5.43;1.30;;;18.30;98.60;;;;;;6271309;22;20008;-76
2023/07/05 11:18:22;;;;;;;6.38;1.17;;;18.50;98.10;;;;;;6271401;22;20087;-76
2023/07/05 11:20:59;;;;;;;6.20;1.30;;;18.60;97.10;;;;;;6272235;22;19992;-76
2023/07/05 11:23:43;;;;;;;5.43;1.65;;;18.70;96.80;;;;;;6272274;22;20004;-75
2023/07/05 11:26:30;;;;;;;6.78;1.10;;;18.90;96.70;;;;;;6271944;22;20355;-76
2023/07/05 11:28:56;;;;;;;6.47;1.10;;;19.10;96.10;;;;;;6271857;22;20000;-76
2023/07/05 11:31:27;;;;;;;6.55;1.05;;;19.40;95.90;;;;;;6271234;22;20065;-76
2023/07/05 11:34:20;;;;;;;4.97;1.23;;;19.50;94.70;;;;;;6271777;22;19996;-75
2023/07/05 11:36:51;;;;;;;4.30;1.25;;;19.60;94.40;;;;;;6272317;22;19999;-75
2023/07/05 11:39:41;;;;;;;4.95;0.90;;;19.50;93.80;;;;;;6273562;22;20057;-75
2023/07/05 11:42:13;;;;;;;3.80;1.05;;;19.50;93.50;;;;;;6255922;22;20129;-76
2023/07/05 11:44:40;;;;;;;3.72;1.20;;;19.40;93.40;;;;;;6271508;22;20061;-74
2023/07/05 11:47:08;;;;;;;6.30;1.10;;;19.40;93.30;;;;;;6271858;22;20003;-75
2023/07/05 11:49:39;;;;;;;4.90;1.95;;;19.40;93.20;;;;;;6272052;22;20366;-75
2023/07/05 11:52:26;;;;;;;2.92;1.20;;;19.60;92.80;;;;;;6271795;22;20049;-75
2023/07/05 11:54:58;;;;;;;4.50;1.67;;;19.70;92.90;;;;;;6272303;22;20011;-75
2023/07/05 11:57:24;;;;;;;4.53;1.02;;;19.90;92.60;;;;;;6272870;22;19996;-75
2023/07/05 12:00:00;;;;;;;5.30;1.23;;;20.10;92.40;;;;;;6272069;22;20023;-75
2023/07/05 12:02:45;;;;;;;3.80;1.13;;;20.20;91.60;;;;;;6272010;22;20011;-75
2023/07/05 12:05:14;;;;;;;3.17;2.38;;;20.30;91.80;;;;;;6273197;22;20082;-75
2023/07/05 12:07:42;;;;;;;3.90;1.58;;;20.30;91.40;;;;;;6274146;22;20008;-75
2023/07/05 12:10:17;;;;;;;2.20;1.13;;;20.50;91.40;;;;;;6273420;22;20139;-76
2023/07/05 12:12:42;;;;;;;4.03;1.65;;;20.60;91.60;;;;;;6274033;22;19999;-75
2023/07/05 12:15:10;;;;;;;4.20;1.48;;;20.60;90.90;;;;;;6272829;22;20081;-75
2023/07/05 12:17:38;;;;;;;7.05;1.80;;;20.40;90.50;;;;;;6246427;22;20143;-75
2023/07/05 12:20:28;;;;;;;4.75;1.65;;;20.20;90.50;;;;;;6273792;22;20495;-76
2023/07/05 12:22:55;;;;;;;4.45;2.30;;;19.90;91.60;;;;;;6230608;22;20325;-76
2023/07/05 12:25:21;;;;;;;6.90;2.05;;;19.60;92.60;;;;;;6246301;22;20004;-75
2023/07/05 12:27:48;;;;;;;3.83;1.60;;;19.50;93.10;;;;;;6273271;22;19999;-76
2023/07/05 12:30:18;;;;;;;3.50;1.55;;;19.30;93.20;;;;;;6273288;22;20006;-76
2023/07/05 12:32:55;;;;;;;3.60;1.55;;;19.10;93.20;;;;;;6273905;22;20000;-76
2023/07/05 12:35:24;;;;;;;7.45;1.45;;;19.00;93.50;;;;;;6273465;22;20000;-76
2023/07/05 12:37:52;;;;;;;8.20;2.10;;;18.80;93.80;;;;;;6273433;22;20000;-76
2023/07/05 12:40:21;;;;;;;3.83;1.60;;;18.70;94.20;;;;;;6273299;22;20007;-76
2023/07/05 12:42:56;;;;;;;8.90;1.63;;;18.60;94.70;;;;;;6273302;22;19996;-75
2023/07/05 12:45:44;;;;;;;3.83;1.58;;;18.50;95.10;;;;;;6273843;22;20007;-76
2023/07/05 12:48:16;;;;;;;5.10;2.05;;;18.40;95.60;;;;;;6272985;22;20050;-75
2023/07/05 12:50:42;;;;;;;3.15;1.30;;;18.30;95.80;;;;;;6273889;22;20401;-74
2023/07/05 12:53:34;;;;;;;7.85;2.67;;;18.00;96.00;;;;;;6273148;22;20000;-76
2023/07/05 12:56:12;;;;;;;5.50;1.98;;;17.70;96.70;;;;;;6267362;22;20394;-76
2023/07/05 12:58:50;;;;;;;3.50;1.60;;;17.40;97.40;;;;;;6245927;22;20082;-76